sensor_id;sensor_type;location;lat;lon;timestamp;pressure;altitude;pressure_sealevel;temperature;humidity
45941;BME280;31858;46.008;8.978;2023-03-01T00:02:02;94710.56;;;1.55;100.00
45941;BME280;31858;46.008;8.978;2023-03-01T00:12:06;94708.88;;;1.50;100.00
45941;BME280;31858;46.008;8.978;2023-03-01T00:22:07;94717.69;;;1.28;100.00
45941;BME280;31858;46.008;8.978;2023-03-01T00:32:10;94718.94;;;1.22;100.00
45941;BME280;31858;46.008;8.978;2023-03-01T00:42:12;94706.25;;;1.42;100.00
45941;BME280;31858;46.008;8.978;2023-03-01T00:52:15;94692.81;;;1.35;100.00
45941;BME280;31858;46.008;8.978;2023-03-01T01:02:16;94675.22;;;1.44;100.00
45941;BME280;31858;46.008;8.978;2023-03-01T01:12:19;94663.31;;;1.38;100.00
45941;BME280;31858;46.008;8.978;2023-03-01T01:22:21;94646.66;;;1.25;100.00
45941;BME280;31858;46.008;8.978;2023-03-01T01:32:24;94627.19;;;1.35;100.00
45941;BME280;31858;46.008;8.978;2023-03-01T01:42:26;94608.19;;;1.38;100.00
45941;BME280;31858;46.008;8.978;2023-03-01T01:52:33;94603.13;;;1.24;100.00
45941;BME280;31858;46.008;8.978;2023-03-01T02:02:36;94592.78;;;1.10;100.00
45941;BME280;31858;46.008;8.978;2023-03-01T02:12:39;94582.91;;;1.07;100.00
45941;BME280;31858;46.008;8.978;2023-03-01T02:22:43;94575.19;;;0.85;100.00
45941;BME280;31858;46.008;8.978;2023-03-01T02:32:47;94558.53;;;0.98;100.00
45941;BME280;31858;46.008;8.978;2023-03-01T02:42:53;94556.66;;;0.98;100.00
45941;BME280;31858;46.008;8.978;2023-03-01T02:53:01;94544.94;;;0.87;100.00
45941;BME280;31858;46.008;8.978;2023-03-01T03:03:06;94540.47;;;0.88;100.00
45941;BME280;31858;46.008;8.978;2023-03-01T03:13:12;94518.09;;;0.82;100.00
45941;BME280;31858;46.008;8.978;2023-03-01T03:23:14;94515.47;;;0.56;100.00
45941;BME280;31858;46.008;8.978;2023-03-01T03:33:17;94502.06;;;0.75;100.00
45941;BME280;31858;46.008;8.978;2023-03-01T03:43:21;94496.19;;;0.95;100.00
45941;BME280;31858;46.008;8.978;2023-03-01T03:53:26;94490.81;;;0.57;100.00
45941;BME280;31858;46.008;8.978;2023-03-01T04:03:29;94481.38;;;0.47;100.00
45941;BME280;31858;46.008;8.978;2023-03-01T04:13:33;94471.97;;;0.46;100.00
45941;BME280;31858;46.008;8.978;2023-03-01T04:23:34;94456.72;;;0.48;100.00
45941;BME280;31858;46.008;8.978;2023-03-01T04:33:38;94461.50;;;0.46;100.00
45941;BME280;31858;46.008;8.978;2023-03-01T04:43:40;94457.34;;;0.54;100.00
45941;BME280;31858;46.008;8.978;2023-03-01T04:53:43;94458.25;;;0.32;100.00
45941;BME280;31858;46.008;8.978;2023-03-01T05:03:46;94461.03;;;0.44;100.00
45941;BME280;31858;46.008;8.978;2023-03-01T05:13:50;94466.13;;;0.49;100.00
45941;BME280;31858;46.008;8.978;2023-03-01T05:23:55;94459.94;;;0.62;100.00
45941;BME280;31858;46.008;8.978;2023-03-01T05:33:58;94462.44;;;0.50;100.00
45941;BME280;31858;46.008;8.978;2023-03-01T05:43:59;94459.97;;;0.54;100.00
45941;BME280;31858;46.008;8.978;2023-03-01T05:54:02;94448.84;;;0.57;100.00
45941;BME280;31858;46.008;8.978;2023-03-01T06:04:06;94452.41;;;0.61;100.00
45941;BME280;31858;46.008;8.978;2023-03-01T06:14:09;94445.16;;;0.67;100.00
45941;BME280;31858;46.008;8.978;2023-03-01T06:24:13;94461.03;;;0.61;100.00
45941;BME280;31858;46.008;8.978;2023-03-01T06:34:15;94476.16;;;0.64;100.00
45941;BME280;31858;46.008;8.978;2023-03-01T06:44:17;94473.38;;;0.70;100.00
45941;BME280;31858;46.008;8.978;2023-03-01T06:54:20;94487.72;;;0.46;100.00
45941;BME280;31858;46.008;8.978;2023-03-01T07:04:22;94489.25;;;0.56;100.00
45941;BME280;31858;46.008;8.978;2023-03-01T07:14:25;94487.88;;;0.41;100.00
45941;BME280;31858;46.008;8.978;2023-03-01T07:24:27;94484.78;;;0.39;100.00
45941;BME280;31858;46.008;8.978;2023-03-01T07:34:31;94484.00;;;0.47;100.00
45941;BME280;31858;46.008;8.978;2023-03-01T07:44:32;94476.59;;;0.75;100.00
45941;BME280;31858;46.008;8.978;2023-03-01T07:54:36;94468.44;;;0.77;100.00
45941;BME280;31858;46.008;8.978;2023-03-01T08:04:37;94471.03;;;0.85;100.00
45941;BME280;31858;46.008;8.978;2023-03-01T08:14:40;94480.44;;;0.95;100.00
45941;BME280;31858;46.008;8.978;2023-03-01T08:24:42;94477.50;;;1.05;100.00
45941;BME280;31858;46.008;8.978;2023-03-01T08:34:47;94483.50;;;1.14;100.00
45941;BME280;31858;46.008;8.978;2023-03-01T08:44:48;94478.84;;;1.20;100.00
45941;BME280;31858;46.008;8.978;2023-03-01T08:54:52;94471.66;;;1.38;100.00
45941;BME280;31858;46.008;8.978;2023-03-01T09:04:53;94469.34;;;1.36;100.00
45941;BME280;31858;46.008;8.978;2023-03-01T09:14:56;94436.28;;;1.44;100.00
45941;BME280;31858;46.008;8.978;2023-03-01T09:24:58;94430.19;;;1.60;100.00
45941;BME280;31858;46.008;8.978;2023-03-01T09:35:01;94422.38;;;1.73;100.00
45941;BME280;31858;46.008;8.978;2023-03-01T09:45:06;94416.22;;;1.98;100.00
45941;BME280;31858;46.008;8.978;2023-03-01T09:55:15;94393.66;;;2.18;100.00
45941;BME280;31858;46.008;8.978;2023-03-01T10:05:29;94376.72;;;2.27;100.00
45941;BME280;31858;46.008;8.978;2023-03-01T10:15:37;94371.53;;;2.40;100.00
45941;BME280;31858;46.008;8.978;2023-03-01T10:25:48;94341.44;;;2.49;100.00
45941;BME280;31858;46.008;8.978;2023-03-01T10:35:53;94348.28;;;2.87;100.00
45941;BME280;31858;46.008;8.978;2023-03-01T10:45:54;94339.00;;;3.14;100.00
45941;BME280;31858;46.008;8.978;2023-03-01T10:56:00;94319.69;;;3.46;100.00
45941;BME280;31858;46.008;8.978;2023-03-01T11:06:05;94293.88;;;3.92;100.00
45941;BME280;31858;46.008;8.978;2023-03-01T11:16:11;94255.50;;;4.07;100.00
45941;BME280;31858;46.008;8.978;2023-03-01T11:26:15;94228.31;;;4.18;100.00
45941;BME280;31858;46.008;8.978;2023-03-01T11:36:26;94213.47;;;4.73;100.00
45941;BME280;31858;46.008;8.978;2023-03-01T11:46:43;94203.13;;;5.00;100.00
45941;BME280;31858;46.008;8.978;2023-03-01T11:56:53;94187.19;;;5.12;100.00
45941;BME280;31858;46.008;8.978;2023-03-01T12:06:57;94175.72;;;5.23;100.00
45941;BME280;31858;46.008;8.978;2023-03-01T12:17:12;94162.66;;;5.50;100.00
45941;BME280;31858;46.008;8.978;2023-03-01T12:27:30;94153.78;;;5.58;100.00
45941;BME280;31858;46.008;8.978;2023-03-01T12:37:45;94149.31;;;5.62;100.00
45941;BME280;31858;46.008;8.978;2023-03-01T12:48:01;94143.34;;;5.65;100.00
45941;BME280;31858;46.008;8.978;2023-03-01T12:58:15;94144.59;;;5.71;100.00
45941;BME280;31858;46.008;8.978;2023-03-01T13:08:28;94116.13;;;5.65;100.00
45941;BME280;31858;46.008;8.978;2023-03-01T13:18:34;94108.81;;;5.77;100.00
45941;BME280;31858;46.008;8.978;2023-03-01T13:28:41;94099.72;;;5.94;100.00
45941;BME280;31858;46.008;8.978;2023-03-01T13:38:56;94084.59;;;5.95;100.00
45941;BME280;31858;46.008;8.978;2023-03-01T13:48:58;94098.19;;;5.93;100.00
45941;BME280;31858;46.008;8.978;2023-03-01T13:59:02;94104.47;;;6.08;100.00
45941;BME280;31858;46.008;8.978;2023-03-01T14:09:13;94127.22;;;6.12;100.00
45941;BME280;31858;46.008;8.978;2023-03-01T14:19:20;94139.28;;;6.10;100.00
45941;BME280;31858;46.008;8.978;2023-03-01T14:29:27;94150.72;;;5.95;100.00
45941;BME280;31858;46.008;8.978;2023-03-01T14:39:32;94172.75;;;5.83;100.00
45941;BME280;31858;46.008;8.978;2023-03-01T14:49:34;94180.56;;;5.76;100.00
45941;BME280;31858;46.008;8.978;2023-03-01T14:59:38;94182.63;;;5.67;100.00
45941;BME280;31858;46.008;8.978;2023-03-01T15:09:40;94187.75;;;5.40;100.00
45941;BME280;31858;46.008;8.978;2023-03-01T15:19:45;94177.81;;;5.14;100.00
45941;BME280;31858;46.008;8.978;2023-03-01T15:29:49;94192.56;;;5.00;100.00
45941;BME280;31858;46.008;8.978;2023-03-01T15:39:55;94202.72;;;4.82;100.00
45941;BME280;31858;46.008;8.978;2023-03-01T15:49:57;94197.22;;;4.71;100.00
45941;BME280;31858;46.008;8.978;2023-03-01T16:00:01;94221.81;;;4.59;100.00
45941;BME280;31858;46.008;8.978;2023-03-01T16:10:11;94234.81;;;4.52;100.00
45941;BME280;31858;46.008;8.978;2023-03-01T16:20:15;94246.22;;;4.41;100.00
45941;BME280;31858;46.008;8.978;2023-03-01T16:30:19;94240.00;;;4.33;100.00
45941;BME280;31858;46.008;8.978;2023-03-01T16:40:24;94248.41;;;4.23;100.00
45941;BME280;31858;46.008;8.978;2023-03-01T16:50:27;94256.97;;;4.20;100.00
45941;BME280;31858;46.008;8.978;2023-03-01T17:00:30;94280.28;;;4.18;100.00
45941;BME280;31858;46.008;8.978;2023-03-01T17:10:32;94280.09;;;4.11;100.00
45941;BME280;31858;46.008;8.978;2023-03-01T17:20:36;94285.94;;;4.04;100.00
45941;BME280;31858;46.008;8.978;2023-03-01T17:30:40;94285.06;;;4.00;100.00
45941;BME280;31858;46.008;8.978;2023-03-01T17:40:44;94287.19;;;3.94;100.00
45941;BME280;31858;46.008;8.978;2023-03-01T17:50:46;94305.53;;;3.91;100.00
45941;BME280;31858;46.008;8.978;2023-03-01T18:00:49;94312.66;;;3.90;100.00
45941;BME280;31858;46.008;8.978;2023-03-01T18:10:57;94326.78;;;3.82;100.00
45941;BME280;31858;46.008;8.978;2023-03-01T18:21:00;94335.25;;;3.76;100.00
45941;BME280;31858;46.008;8.978;2023-03-01T18:31:04;94336.56;;;3.70;100.00
45941;BME280;31858;46.008;8.978;2023-03-01T18:41:09;94353.38;;;3.65;100.00
45941;BME280;31858;46.008;8.978;2023-03-01T18:51:12;94356.91;;;3.57;100.00
45941;BME280;31858;46.008;8.978;2023-03-01T19:01:18;94366.44;;;3.49;100.00
45941;BME280;31858;46.008;8.978;2023-03-01T19:11:19;94362.94;;;3.33;100.00
45941;BME280;31858;46.008;8.978;2023-03-01T19:21:22;94374.88;;;3.18;100.00
45941;BME280;31858;46.008;8.978;2023-03-01T19:31:26;94381.44;;;3.12;100.00
45941;BME280;31858;46.008;8.978;2023-03-01T19:41:30;94392.84;;;3.04;100.00
45941;BME280;31858;46.008;8.978;2023-03-01T19:51:32;94401.59;;;2.96;100.00
45941;BME280;31858;46.008;8.978;2023-03-01T20:01:37;94424.97;;;2.98;100.00
45941;BME280;31858;46.008;8.978;2023-03-01T20:11:41;94430.72;;;2.79;100.00
45941;BME280;31858;46.008;8.978;2023-03-01T20:21:44;94455.16;;;2.79;100.00
45941;BME280;31858;46.008;8.978;2023-03-01T20:31:46;94466.97;;;2.73;100.00
45941;BME280;31858;46.008;8.978;2023-03-01T20:41:48;94486.16;;;2.74;100.00
45941;BME280;31858;46.008;8.978;2023-03-01T20:51:50;94492.41;;;2.69;100.00
45941;BME280;31858;46.008;8.978;2023-03-01T21:01:53;94487.72;;;2.75;100.00
45941;BME280;31858;46.008;8.978;2023-03-01T21:11:55;94497.16;;;2.76;100.00
45941;BME280;31858;46.008;8.978;2023-03-01T21:21:58;94489.75;;;2.90;100.00
45941;BME280;31858;46.008;8.978;2023-03-01T21:31:59;94483.63;;;2.98;100.00
45941;BME280;31858;46.008;8.978;2023-03-01T21:42:03;94483.88;;;3.05;100.00
45941;BME280;31858;46.008;8.978;2023-03-01T21:52:05;94492.22;;;3.07;100.00
45941;BME280;31858;46.008;8.978;2023-03-01T22:02:09;94484.78;;;3.09;100.00
45941;BME280;31858;46.008;8.978;2023-03-01T22:12:11;94467.44;;;3.08;100.00
45941;BME280;31858;46.008;8.978;2023-03-01T22:22:14;94467.19;;;3.01;100.00
45941;BME280;31858;46.008;8.978;2023-03-01T22:32:16;94456.66;;;3.01;100.00
45941;BME280;31858;46.008;8.978;2023-03-01T22:42:19;94471.38;;;3.02;100.00
45941;BME280;31858;46.008;8.978;2023-03-01T22:52:22;94471.56;;;2.97;100.00
45941;BME280;31858;46.008;8.978;2023-03-01T23:02:25;94472.50;;;2.80;100.00
45941;BME280;31858;46.008;8.978;2023-03-01T23:12:26;94484.69;;;2.64;100.00
45941;BME280;31858;46.008;8.978;2023-03-01T23:22:30;94483.06;;;2.59;100.00
45941;BME280;31858;46.008;8.978;2023-03-01T23:32:31;94483.75;;;2.48;100.00
45941;BME280;31858;46.008;8.978;2023-03-01T23:42:38;94486.91;;;2.41;100.00
45941;BME280;31858;46.008;8.978;2023-03-01T23:52:40;94493.59;;;2.59;100.00
